Aneta, North Dakota
Current Conditions -  °F | °C
As of 4:26 AM on Friday 19 Dec 2014 (Local Time) from KRDR Reporting Station
Freezing Drizzle Freezing Drizzle  
Wind Chill: 10°   Ceiling: 400
Heat Index: 21°   Visibility: 3mi
Dew Point: 21°   Wind: 10mph
Humidity: 100%   Direction: 170°S
Pressure: 30.08"   Gusts: NA
Location:  47.68°N, 97.99°W
Report Text: KRDR 191026Z AUTO 17009KT 3SM R17/4000FT -FZDZ BR OVC004 M06/M06 A3008 RMK AO2
Loading
Personal Weather Stations






























Interactive Weather Map New forecast layout! Learn more

10-Day Weather Forecast

Advertisements
Track Severe Weather on mobile